sensor_id;sensor_type;location;lat;lon;timestamp;pressure;altitude;pressure_sealevel;temperature;humidity
51986;BME280;38002;53.296;6.600;2022-12-07T00:04:27;101836.19;;;3.79;93.41
51986;BME280;38002;53.296;6.600;2022-12-07T00:09:27;101840.03;;;3.75;93.36
51986;BME280;38002;53.296;6.600;2022-12-07T00:14:28;101830.41;;;3.71;93.56
51986;BME280;38002;53.296;6.600;2022-12-07T00:19:28;101826.34;;;3.63;93.34
51986;BME280;38002;53.296;6.600;2022-12-07T00:24:28;101828.44;;;3.58;93.13
51986;BME280;38002;53.296;6.600;2022-12-07T00:29:29;101819.72;;;3.55;94.00
51986;BME280;38002;53.296;6.600;2022-12-07T00:34:29;101828.94;;;3.51;93.01
51986;BME280;38002;53.296;6.600;2022-12-07T00:39:30;101827.19;;;3.50;93.77
51986;BME280;38002;53.296;6.600;2022-12-07T00:44:30;101823.81;;;3.46;93.85
51986;BME280;38002;53.296;6.600;2022-12-07T00:49:30;101822.09;;;3.45;93.89
51986;BME280;38002;53.296;6.600;2022-12-07T00:54:31;101835.44;;;3.47;94.45
51986;BME280;38002;53.296;6.600;2022-12-07T00:59:31;101830.59;;;3.53;94.33
51986;BME280;38002;53.296;6.600;2022-12-07T01:04:33;101815.59;;;3.63;94.36
51986;BME280;38002;53.296;6.600;2022-12-07T01:09:34;101813.28;;;3.72;94.30
51986;BME280;38002;53.296;6.600;2022-12-07T01:14:35;101821.00;;;3.78;93.80
51986;BME280;38002;53.296;6.600;2022-12-07T01:19:35;101800.34;;;3.78;94.06
51986;BME280;38002;53.296;6.600;2022-12-07T01:24:35;101805.81;;;3.77;94.04
51986;BME280;38002;53.296;6.600;2022-12-07T01:29:36;101806.69;;;3.77;93.88
51986;BME280;38002;53.296;6.600;2022-12-07T01:34:36;101841.56;;;3.79;93.38
51986;BME280;38002;53.296;6.600;2022-12-07T01:39:37;101835.19;;;3.80;93.80
51986;BME280;38002;53.296;6.600;2022-12-07T01:50:16;101812.34;;;3.87;93.63
51986;BME280;38002;53.296;6.600;2022-12-07T01:55:16;101806.69;;;3.91;94.30
51986;BME280;38002;53.296;6.600;2022-12-07T02:00:18;101805.81;;;3.91;94.12
51986;BME280;38002;53.296;6.600;2022-12-07T02:05:19;101808.50;;;3.91;93.91
51986;BME280;38002;53.296;6.600;2022-12-07T02:10:23;101798.97;;;3.85;93.99
51986;BME280;38002;53.296;6.600;2022-12-07T02:15:30;101812.72;;;3.81;93.45
51986;BME280;38002;53.296;6.600;2022-12-07T02:20:37;101816.75;;;3.74;93.59
51986;BME280;38002;53.296;6.600;2022-12-07T02:31:19;101808.00;;;3.56;93.40
51986;BME280;38002;53.296;6.600;2022-12-07T02:36:25;101803.19;;;3.47;93.11
51986;BME280;38002;53.296;6.600;2022-12-07T02:41:34;101817.09;;;3.39;93.04
51986;BME280;38002;53.296;6.600;2022-12-07T02:46:40;101808.38;;;3.36;93.30
51986;BME280;38002;53.296;6.600;2022-12-07T02:51:43;101787.13;;;3.31;93.49
51986;BME280;38002;53.296;6.600;2022-12-07T03:13:14;101791.44;;;3.34;94.39
51986;BME280;38002;53.296;6.600;2022-12-07T03:18:20;101787.44;;;3.41;94.42
51986;BME280;38002;53.296;6.600;2022-12-07T03:23:24;101776.38;;;3.45;94.46
51986;BME280;38002;53.296;6.600;2022-12-07T03:28:29;101797.72;;;3.48;94.11
51986;BME280;38002;53.296;6.600;2022-12-07T03:33:49;101797.03;;;3.59;94.19
51986;BME280;38002;53.296;6.600;2022-12-07T03:39:07;101790.34;;;3.66;94.24
51986;BME280;38002;53.296;6.600;2022-12-07T03:44:09;101781.88;;;3.72;94.50
51986;BME280;38002;53.296;6.600;2022-12-07T03:54:28;101764.00;;;3.71;93.86
51986;BME280;38002;53.296;6.600;2022-12-07T03:59:30;101762.38;;;3.69;94.31
51986;BME280;38002;53.296;6.600;2022-12-07T04:04:30;101757.28;;;3.64;93.90
51986;BME280;38002;53.296;6.600;2022-12-07T04:09:31;101769.13;;;3.61;93.39
51986;BME280;38002;53.296;6.600;2022-12-07T04:14:31;101774.59;;;3.60;93.45
51986;BME280;38002;53.296;6.600;2022-12-07T04:19:33;101768.44;;;3.58;93.25
51986;BME280;38002;53.296;6.600;2022-12-07T04:24:34;101760.66;;;3.53;93.55
51986;BME280;38002;53.296;6.600;2022-12-07T04:29:35;101774.88;;;3.55;93.92
51986;BME280;38002;53.296;6.600;2022-12-07T04:34:35;101796.75;;;3.63;93.79
51986;BME280;38002;53.296;6.600;2022-12-07T04:39:36;101774.75;;;3.71;94.13
51986;BME280;38002;53.296;6.600;2022-12-07T04:44:37;101761.44;;;3.70;93.13
51986;BME280;38002;53.296;6.600;2022-12-07T04:49:37;101755.38;;;3.66;94.23
51986;BME280;38002;53.296;6.600;2022-12-07T04:54:37;101747.69;;;3.60;93.43
51986;BME280;38002;53.296;6.600;2022-12-07T04:59:38;101751.63;;;3.54;92.81
51986;BME280;38002;53.296;6.600;2022-12-07T05:04:38;101744.81;;;3.49;93.06
51986;BME280;38002;53.296;6.600;2022-12-07T05:09:39;101744.31;;;3.42;93.51
51986;BME280;38002;53.296;6.600;2022-12-07T05:14:39;101740.38;;;3.34;92.98
51986;BME280;38002;53.296;6.600;2022-12-07T05:19:39;101751.81;;;3.23;93.55
51986;BME280;38002;53.296;6.600;2022-12-07T05:24:40;101752.44;;;3.12;93.18
51986;BME280;38002;53.296;6.600;2022-12-07T05:29:40;101760.28;;;3.01;92.52
51986;BME280;38002;53.296;6.600;2022-12-07T05:34:41;101748.44;;;2.90;92.86
51986;BME280;38002;53.296;6.600;2022-12-07T05:39:41;101760.69;;;2.80;92.61
51986;BME280;38002;53.296;6.600;2022-12-07T05:44:44;101749.72;;;2.68;93.04
51986;BME280;38002;53.296;6.600;2022-12-07T05:49:45;101750.63;;;2.53;92.67
51986;BME280;38002;53.296;6.600;2022-12-07T05:54:46;101745.78;;;2.44;93.47
51986;BME280;38002;53.296;6.600;2022-12-07T05:59:46;101738.84;;;2.40;93.29
51986;BME280;38002;53.296;6.600;2022-12-07T06:04:47;101752.47;;;2.37;92.80
51986;BME280;38002;53.296;6.600;2022-12-07T06:09:47;101745.97;;;2.41;92.93
51986;BME280;38002;53.296;6.600;2022-12-07T06:14:48;101740.03;;;2.50;94.28
51986;BME280;38002;53.296;6.600;2022-12-07T06:19:48;101728.41;;;2.65;93.89
51986;BME280;38002;53.296;6.600;2022-12-07T06:24:49;101737.47;;;2.79;93.97
51986;BME280;38002;53.296;6.600;2022-12-07T06:29:49;101734.06;;;2.91;93.22
51986;BME280;38002;53.296;6.600;2022-12-07T06:34:49;101732.72;;;2.98;93.92
51986;BME280;38002;53.296;6.600;2022-12-07T06:39:50;101735.13;;;3.02;93.37
51986;BME280;38002;53.296;6.600;2022-12-07T06:44:50;101732.38;;;3.04;93.12
51986;BME280;38002;53.296;6.600;2022-12-07T06:49:51;101734.28;;;3.02;92.47
51986;BME280;38002;53.296;6.600;2022-12-07T06:54:51;101740.63;;;3.01;92.69
51986;BME280;38002;53.296;6.600;2022-12-07T06:59:52;101766.63;;;3.00;92.42
51986;BME280;38002;53.296;6.600;2022-12-07T07:04:52;101792.41;;;3.03;93.05
51986;BME280;38002;53.296;6.600;2022-12-07T07:09:52;101784.09;;;3.07;92.81
51986;BME280;38002;53.296;6.600;2022-12-07T07:14:53;101754.53;;;3.07;93.45
51986;BME280;38002;53.296;6.600;2022-12-07T07:19:53;101749.75;;;3.12;93.72
51986;BME280;38002;53.296;6.600;2022-12-07T07:24:53;101744.19;;;3.15;93.04
51986;BME280;38002;53.296;6.600;2022-12-07T07:29:54;101752.75;;;3.22;92.83
51986;BME280;38002;53.296;6.600;2022-12-07T07:34:54;101754.28;;;3.26;93.25
51986;BME280;38002;53.296;6.600;2022-12-07T07:39:55;101754.00;;;3.31;93.74
51986;BME280;38002;53.296;6.600;2022-12-07T07:44:55;101755.56;;;3.35;93.80
51986;BME280;38002;53.296;6.600;2022-12-07T07:49:55;101751.78;;;3.37;92.80
51986;BME280;38002;53.296;6.600;2022-12-07T07:54:57;101752.06;;;3.33;93.09
51986;BME280;38002;53.296;6.600;2022-12-07T07:59:57;101754.00;;;3.31;93.74
51986;BME280;38002;53.296;6.600;2022-12-07T08:04:58;101746.22;;;3.26;93.22
51986;BME280;38002;53.296;6.600;2022-12-07T08:09:58;101750.06;;;3.22;93.14
51986;BME280;38002;53.296;6.600;2022-12-07T08:14:58;101754.06;;;3.15;93.30
51986;BME280;38002;53.296;6.600;2022-12-07T08:19:59;101762.44;;;3.10;93.30
51986;BME280;38002;53.296;6.600;2022-12-07T08:24:59;101766.22;;;3.06;93.39
51986;BME280;38002;53.296;6.600;2022-12-07T08:30:00;101780.03;;;3.00;92.72
51986;BME280;38002;53.296;6.600;2022-12-07T08:35:00;101790.78;;;3.00;93.23
51986;BME280;38002;53.296;6.600;2022-12-07T08:40:01;101772.47;;;3.07;93.63
51986;BME280;38002;53.296;6.600;2022-12-07T08:45:02;101769.22;;;3.16;93.40
51986;BME280;38002;53.296;6.600;2022-12-07T08:50:03;101762.34;;;3.26;92.90
51986;BME280;38002;53.296;6.600;2022-12-07T08:55:06;101763.53;;;3.36;93.37
51986;BME280;38002;53.296;6.600;2022-12-07T09:00:07;101762.09;;;3.45;93.34
51986;BME280;38002;53.296;6.600;2022-12-07T09:05:08;101758.81;;;3.54;92.76
51986;BME280;38002;53.296;6.600;2022-12-07T09:10:08;101757.38;;;3.62;93.10
51986;BME280;38002;53.296;6.600;2022-12-07T09:15:09;101750.47;;;3.73;93.04
51986;BME280;38002;53.296;6.600;2022-12-07T09:20:10;101760.06;;;3.91;93.13
51986;BME280;38002;53.296;6.600;2022-12-07T09:25:10;101758.13;;;4.07;92.57
51986;BME280;38002;53.296;6.600;2022-12-07T09:30:11;101752.94;;;4.18;92.68
51986;BME280;38002;53.296;6.600;2022-12-07T09:35:11;101768.47;;;4.27;92.91
51986;BME280;38002;53.296;6.600;2022-12-07T09:40:13;101770.56;;;4.36;92.68
51986;BME280;38002;53.296;6.600;2022-12-07T09:45:21;101772.78;;;4.44;92.55
51986;BME280;38002;53.296;6.600;2022-12-07T09:50:25;101774.94;;;4.51;91.94
51986;BME280;38002;53.296;6.600;2022-12-07T09:55:28;101758.06;;;4.62;92.20
51986;BME280;38002;53.296;6.600;2022-12-07T10:00:29;101762.75;;;4.73;92.09
51986;BME280;38002;53.296;6.600;2022-12-07T10:05:39;101753.75;;;4.86;92.05
51986;BME280;38002;53.296;6.600;2022-12-07T10:10:41;101741.34;;;4.96;91.87
51986;BME280;38002;53.296;6.600;2022-12-07T10:20:42;101744.53;;;5.16;91.02
51986;BME280;38002;53.296;6.600;2022-12-07T10:25:43;101742.94;;;5.26;91.31
51986;BME280;38002;53.296;6.600;2022-12-07T10:30:56;101743.81;;;5.39;91.18
51986;BME280;38002;53.296;6.600;2022-12-07T10:35:59;101742.50;;;5.44;90.97
51986;BME280;38002;53.296;6.600;2022-12-07T10:41:07;101740.34;;;5.49;90.92
51986;BME280;38002;53.296;6.600;2022-12-07T10:57:05;101735.91;;;5.48;90.19
51986;BME280;38002;53.296;6.600;2022-12-07T11:08:03;101718.66;;;5.51;90.42
51986;BME280;38002;53.296;6.600;2022-12-07T11:24:23;101691.56;;;5.78;90.35
51986;BME280;38002;53.296;6.600;2022-12-07T11:29:34;101683.94;;;5.96;90.75
51986;BME280;38002;53.296;6.600;2022-12-07T11:40:03;101657.81;;;6.67;89.68
51986;BME280;38002;53.296;6.600;2022-12-07T11:45:14;101662.88;;;6.72;88.48
51986;BME280;38002;53.296;6.600;2022-12-07T12:00:44;101655.72;;;6.36;89.22
51986;BME280;38002;53.296;6.600;2022-12-07T12:05:45;101651.25;;;6.24;89.12
51986;BME280;38002;53.296;6.600;2022-12-07T12:11:00;101652.03;;;6.13;88.78
51986;BME280;38002;53.296;6.600;2022-12-07T12:16:11;101647.97;;;6.08;89.36
51986;BME280;38002;53.296;6.600;2022-12-07T12:21:18;101635.56;;;6.05;89.01
51986;BME280;38002;53.296;6.600;2022-12-07T12:26:26;101628.22;;;6.07;89.67
51986;BME280;38002;53.296;6.600;2022-12-07T12:31:31;101624.41;;;6.10;89.28
51986;BME280;38002;53.296;6.600;2022-12-07T12:46:52;101603.72;;;6.21;89.29
51986;BME280;38002;53.296;6.600;2022-12-07T12:52:46;101601.50;;;6.15;89.22
51986;BME280;38002;53.296;6.600;2022-12-07T13:03:16;101585.19;;;5.93;88.70
51986;BME280;38002;53.296;6.600;2022-12-07T13:07:57;101576.13;;;5.94;89.13
51986;BME280;38002;53.296;6.600;2022-12-07T13:23:38;101597.28;;;5.87;88.02
51986;BME280;38002;53.296;6.600;2022-12-07T13:28:42;101604.44;;;5.76;88.26
51986;BME280;38002;53.296;6.600;2022-12-07T13:33:45;101594.88;;;5.59;88.66
51986;BME280;38002;53.296;6.600;2022-12-07T13:38:51;101591.59;;;5.43;89.05
51986;BME280;38002;53.296;6.600;2022-12-07T13:43:59;101576.16;;;5.32;89.36
51986;BME280;38002;53.296;6.600;2022-12-07T13:49:00;101571.56;;;5.22;89.52
51986;BME280;38002;53.296;6.600;2022-12-07T13:54:11;101570.16;;;5.16;89.58
51986;BME280;38002;53.296;6.600;2022-12-07T13:59:16;101561.00;;;5.06;89.22
51986;BME280;38002;53.296;6.600;2022-12-07T14:09:29;101565.31;;;4.83;89.30
51986;BME280;38002;53.296;6.600;2022-12-07T14:14:31;101568.03;;;4.71;89.43
51986;BME280;38002;53.296;6.600;2022-12-07T14:19:43;101567.16;;;4.57;88.96
51986;BME280;38002;53.296;6.600;2022-12-07T14:24:44;101559.81;;;4.47;89.69
51986;BME280;38002;53.296;6.600;2022-12-07T14:29:45;101572.09;;;4.38;88.90
51986;BME280;38002;53.296;6.600;2022-12-07T14:34:57;101555.47;;;4.32;89.45
51986;BME280;38002;53.296;6.600;2022-12-07T14:39:57;101567.56;;;4.26;90.07
51986;BME280;38002;53.296;6.600;2022-12-07T14:44:58;101575.06;;;4.21;90.42
51986;BME280;38002;53.296;6.600;2022-12-07T14:49:58;101555.69;;;4.16;89.91
51986;BME280;38002;53.296;6.600;2022-12-07T14:54:59;101551.78;;;4.07;90.12
51986;BME280;38002;53.296;6.600;2022-12-07T14:59:59;101550.34;;;4.02;89.95
51986;BME280;38002;53.296;6.600;2022-12-07T15:05:00;101553.47;;;3.96;90.41
51986;BME280;38002;53.296;6.600;2022-12-07T15:10:00;101550.00;;;3.94;90.48
51986;BME280;38002;53.296;6.600;2022-12-07T15:15:01;101565.28;;;3.93;90.05
51986;BME280;38002;53.296;6.600;2022-12-07T15:20:02;101551.97;;;3.92;90.67
51986;BME280;38002;53.296;6.600;2022-12-07T15:25:03;101555.91;;;3.86;89.91
51986;BME280;38002;53.296;6.600;2022-12-07T15:30:06;101541.91;;;3.81;90.33
51986;BME280;38002;53.296;6.600;2022-12-07T15:35:07;101544.91;;;3.77;90.11
51986;BME280;38002;53.296;6.600;2022-12-07T15:40:08;101546.94;;;3.73;90.28
51986;BME280;38002;53.296;6.600;2022-12-07T15:45:10;101531.00;;;3.70;90.30
51986;BME280;38002;53.296;6.600;2022-12-07T15:50:14;101527.84;;;3.63;90.14
51986;BME280;38002;53.296;6.600;2022-12-07T15:55:14;101522.78;;;3.59;90.91
51986;BME280;38002;53.296;6.600;2022-12-07T16:00:15;101518.69;;;3.53;90.86
51986;BME280;38002;53.296;6.600;2022-12-07T16:05:16;101517.03;;;3.51;90.35
51986;BME280;38002;53.296;6.600;2022-12-07T16:10:16;101511.00;;;3.47;90.24
51986;BME280;38002;53.296;6.600;2022-12-07T16:15:17;101506.16;;;3.40;90.37
51986;BME280;38002;53.296;6.600;2022-12-07T16:20:17;101508.34;;;3.33;90.20
51986;BME280;38002;53.296;6.600;2022-12-07T16:25:18;101501.56;;;3.28;90.75
51986;BME280;38002;53.296;6.600;2022-12-07T16:30:18;101491.00;;;3.25;91.15
51986;BME280;38002;53.296;6.600;2022-12-07T16:35:19;101482.84;;;3.26;91.05
51986;BME280;38002;53.296;6.600;2022-12-07T16:40:19;101482.75;;;3.28;91.74
51986;BME280;38002;53.296;6.600;2022-12-07T16:45:19;101477.47;;;3.26;90.66
51986;BME280;38002;53.296;6.600;2022-12-07T16:50:20;101481.13;;;3.25;90.94
51986;BME280;38002;53.296;6.600;2022-12-07T16:55:20;101477.22;;;3.16;91.19
51986;BME280;38002;53.296;6.600;2022-12-07T17:00:21;101468.78;;;3.08;91.02
51986;BME280;38002;53.296;6.600;2022-12-07T17:05:21;101458.25;;;3.05;91.25
51986;BME280;38002;53.296;6.600;2022-12-07T17:10:22;101460.16;;;3.03;90.85
51986;BME280;38002;53.296;6.600;2022-12-07T17:15:23;101452.31;;;3.00;91.47
51986;BME280;38002;53.296;6.600;2022-12-07T17:20:26;101448.31;;;2.93;90.82
51986;BME280;38002;53.296;6.600;2022-12-07T17:25:27;101443.22;;;2.89;91.66
51986;BME280;38002;53.296;6.600;2022-12-07T17:30:27;101440.72;;;2.86;91.25
51986;BME280;38002;53.296;6.600;2022-12-07T17:35:27;101434.47;;;2.85;92.06
51986;BME280;38002;53.296;6.600;2022-12-07T17:40:28;101420.22;;;2.85;91.63
51986;BME280;38002;53.296;6.600;2022-12-07T17:45:28;101427.41;;;2.84;92.43
51986;BME280;38002;53.296;6.600;2022-12-07T17:50:29;101422.78;;;2.86;92.49
51986;BME280;38002;53.296;6.600;2022-12-07T17:55:52;101419.06;;;2.89;91.79
51986;BME280;38002;53.296;6.600;2022-12-07T18:00:53;101418.63;;;2.95;91.54
51986;BME280;38002;53.296;6.600;2022-12-07T18:05:53;101401.47;;;2.97;91.63
51986;BME280;38002;53.296;6.600;2022-12-07T18:10:58;101386.19;;;2.98;91.58
51986;BME280;38002;53.296;6.600;2022-12-07T18:15:59;101392.56;;;2.97;91.10
51986;BME280;38002;53.296;6.600;2022-12-07T18:21:03;101382.97;;;2.93;92.27
51986;BME280;38002;53.296;6.600;2022-12-07T18:26:04;101384.31;;;2.86;92.02
51986;BME280;38002;53.296;6.600;2022-12-07T18:31:05;101367.84;;;2.78;92.13
51986;BME280;38002;53.296;6.600;2022-12-07T18:36:06;101364.41;;;2.76;91.64
51986;BME280;38002;53.296;6.600;2022-12-07T18:41:08;101362.78;;;2.73;91.75
51986;BME280;38002;53.296;6.600;2022-12-07T18:46:12;101366.53;;;2.70;92.05
51986;BME280;38002;53.296;6.600;2022-12-07T18:51:14;101376.41;;;2.70;91.43
51986;BME280;38002;53.296;6.600;2022-12-07T18:56:20;101362.13;;;2.69;92.56
51986;BME280;38002;53.296;6.600;2022-12-07T19:01:21;101367.56;;;2.68;92.29
51986;BME280;38002;53.296;6.600;2022-12-07T19:06:21;101356.00;;;2.67;92.06
51986;BME280;38002;53.296;6.600;2022-12-07T19:11:25;101351.47;;;2.68;91.94
51986;BME280;38002;53.296;6.600;2022-12-07T19:16:44;101341.59;;;2.68;92.44
51986;BME280;38002;53.296;6.600;2022-12-07T19:21:45;101318.28;;;2.69;92.24
51986;BME280;38002;53.296;6.600;2022-12-07T19:26:46;101313.59;;;2.72;92.49
51986;BME280;38002;53.296;6.600;2022-12-07T19:31:46;101312.53;;;2.75;92.13
51986;BME280;38002;53.296;6.600;2022-12-07T19:36:47;101305.13;;;2.79;92.41
51986;BME280;38002;53.296;6.600;2022-12-07T19:41:47;101312.88;;;2.83;91.77
51986;BME280;38002;53.296;6.600;2022-12-07T19:46:49;101310.94;;;2.85;91.86
51986;BME280;38002;53.296;6.600;2022-12-07T19:51:55;101305.56;;;2.85;91.61
51986;BME280;38002;53.296;6.600;2022-12-07T19:56:57;101296.88;;;2.82;91.66
51986;BME280;38002;53.296;6.600;2022-12-07T20:01:57;101306.88;;;2.80;92.55
51986;BME280;38002;53.296;6.600;2022-12-07T20:06:59;101304.28;;;2.78;92.64
51986;BME280;38002;53.296;6.600;2022-12-07T20:12:00;101281.91;;;2.78;91.71
51986;BME280;38002;53.296;6.600;2022-12-07T20:17:19;101274.09;;;2.74;92.10
51986;BME280;38002;53.296;6.600;2022-12-07T20:22:20;101263.56;;;2.71;92.12
51986;BME280;38002;53.296;6.600;2022-12-07T20:27:20;101275.47;;;2.67;91.71
51986;BME280;38002;53.296;6.600;2022-12-07T20:32:21;101268.19;;;2.55;92.23
51986;BME280;38002;53.296;6.600;2022-12-07T20:37:21;101269.56;;;2.48;92.83
51986;BME280;38002;53.296;6.600;2022-12-07T20:42:22;101270.66;;;2.46;91.98
51986;BME280;38002;53.296;6.600;2022-12-07T20:47:37;101265.44;;;2.43;92.62
51986;BME280;38002;53.296;6.600;2022-12-07T20:52:38;101276.84;;;2.46;92.47
51986;BME280;38002;53.296;6.600;2022-12-07T20:57:38;101270.53;;;2.47;93.00
51986;BME280;38002;53.296;6.600;2022-12-07T21:02:39;101270.44;;;2.49;93.29
51986;BME280;38002;53.296;6.600;2022-12-07T21:07:39;101252.09;;;2.55;92.63
51986;BME280;38002;53.296;6.600;2022-12-07T21:12:40;101242.22;;;2.56;92.93
51986;BME280;38002;53.296;6.600;2022-12-07T21:17:40;101240.59;;;2.53;93.34
51986;BME280;38002;53.296;6.600;2022-12-07T21:22:41;101228.53;;;2.46;93.55
51986;BME280;38002;53.296;6.600;2022-12-07T21:27:41;101231.53;;;2.42;93.33
51986;BME280;38002;53.296;6.600;2022-12-07T21:32:42;101217.75;;;2.34;93.50
51986;BME280;38002;53.296;6.600;2022-12-07T21:37:42;101205.63;;;2.28;93.63
51986;BME280;38002;53.296;6.600;2022-12-07T21:42:43;101184.41;;;2.11;93.42
51986;BME280;38002;53.296;6.600;2022-12-07T21:47:44;101200.09;;;2.17;93.52
51986;BME280;38002;53.296;6.600;2022-12-07T21:52:45;101193.00;;;2.16;93.20
51986;BME280;38002;53.296;6.600;2022-12-07T21:57:45;101183.25;;;2.15;93.39
51986;BME280;38002;53.296;6.600;2022-12-07T22:02:46;101186.22;;;2.10;94.17
51986;BME280;38002;53.296;6.600;2022-12-07T22:07:46;101170.44;;;2.06;93.81
51986;BME280;38002;53.296;6.600;2022-12-07T22:12:47;101161.44;;;2.07;94.73
51986;BME280;38002;53.296;6.600;2022-12-07T22:17:48;101164.13;;;2.07;94.53
51986;BME280;38002;53.296;6.600;2022-12-07T22:22:48;101165.63;;;2.11;93.46
51986;BME280;38002;53.296;6.600;2022-12-07T22:27:49;101159.84;;;2.17;93.05
51986;BME280;38002;53.296;6.600;2022-12-07T22:32:49;101145.91;;;2.24;94.41
51986;BME280;38002;53.296;6.600;2022-12-07T22:37:50;101137.16;;;2.35;93.91
51986;BME280;38002;53.296;6.600;2022-12-07T22:42:50;101133.00;;;2.44;93.56
51986;BME280;38002;53.296;6.600;2022-12-07T22:47:51;101122.28;;;2.44;93.76
51986;BME280;38002;53.296;6.600;2022-12-07T22:52:52;101126.13;;;2.40;94.16
51986;BME280;38002;53.296;6.600;2022-12-07T22:57:54;101118.38;;;2.35;93.02
51986;BME280;38002;53.296;6.600;2022-12-07T23:02:54;101110.56;;;2.32;93.05
51986;BME280;38002;53.296;6.600;2022-12-07T23:07:54;101106.53;;;2.25;93.14
51986;BME280;38002;53.296;6.600;2022-12-07T23:12:55;101100.66;;;2.20;92.57
51986;BME280;38002;53.296;6.600;2022-12-07T23:18:14;101116.19;;;2.15;92.83
51986;BME280;38002;53.296;6.600;2022-12-07T23:23:14;101125.84;;;2.17;93.49
51986;BME280;38002;53.296;6.600;2022-12-07T23:28:15;101130.69;;;2.25;93.74
51986;BME280;38002;53.296;6.600;2022-12-07T23:33:15;101127.38;;;2.34;93.57
51986;BME280;38002;53.296;6.600;2022-12-07T23:38:16;101118.94;;;2.40;93.79
51986;BME280;38002;53.296;6.600;2022-12-07T23:43:16;101107.91;;;2.45;93.86
51986;BME280;38002;53.296;6.600;2022-12-07T23:48:17;101104.34;;;2.44;93.32
51986;BME280;38002;53.296;6.600;2022-12-07T23:53:17;101082.00;;;2.44;93.78
51986;BME280;38002;53.296;6.600;2022-12-07T23:58:18;101057.22;;;2.40;93.63
